| time (UTC) | temp C | wind direction | speed KPH | gust KPH | rain 1hr cm | rain 24hr cm | rain mn cm | humidity % | barometer mb |
| 20260505171522 | 7 | 353 | 11.3 | 14.5 | 0.00 | 0.00 | 0.00 | 42 | 1020.8 |
| 20260505171019 | 8 | 333 | 11.3 | 12.9 | 0.00 | 0.00 | 0.00 | 40 | 1021.1 |
| 20260505170516 | 6 | 321 | 12.9 | 14.5 | 0.00 | 0.00 | 0.00 | 44 | 1021.2 |
| 20260505170013 | 7 | 351 | 16.1 | 20.9 | 0.00 | 0.00 | 0.00 | 45 | 1021.1 |
| 20260505165508 | 7 | 325 | 16.1 | 24.1 | 0.00 | 0.00 | 0.00 | 45 | 1021.1 |
| 20260505165004 | 9 | 318 | 12.9 | 16.1 | 0.00 | 0.00 | 0.00 | 43 | 1021.1 |
| 20260505164500 | 8 | 21 | 14.5 | 17.7 | 0.00 | 0.00 | 0.00 | 38 | 1021.1 |
| 20260505163958 | 8 | 343 | 14.5 | 17.7 | 0.00 | 0.00 | 0.00 | 39 | 1021.2 |
| 20260505163456 | 7 | 5 | 9.7 | 12.9 | 0.00 | 0.00 | 0.00 | 42 | 1021.2 |
| 20260505162955 | 6 | 355 | 14.5 | 16.1 | 0.00 | 0.00 | 0.00 | 44 | 1021.1 |
| 20260505162451 | 7 | 335 | 17.7 | 22.5 | 0.00 | 0.00 | 0.00 | 44 | 1021.2 |
| 20260505161947 | 6 | 261 | 22.5 | 33.8 | 0.00 | 0.00 | 0.00 | 48 | 1020.9 |
| 20260505161444 | 6 | 351 | 11.3 | 12.9 | 0.00 | 0.00 | 0.00 | 47 | 1021.2 |
| 20260505160942 | 7 | 324 | 16.1 | 20.9 | 0.00 | 0.00 | 0.00 | 48 | 1021.2 |
| 20260505160440 | 7 | 7 | 11.3 | 12.9 | 0.00 | 0.00 | 0.00 | 48 | 1021.2 |
| 20260505152916 | 5 | 354 | 11.3 | 12.9 | 0.00 | 0.00 | 0.00 | 55 | 1021.3 |
| 20260505152414 | 5 | 335 | 12.9 | 14.5 | 0.00 | 0.00 | 0.00 | 55 | 1021.4 |
| 20260505151913 | 6 | 331 | 14.5 | 16.1 | 0.00 | 0.00 | 0.00 | 53 | 1021.4 |
| 20260505151410 | 6 | 349 | 9.7 | 12.9 | 0.00 | 0.00 | 0.00 | 55 | 1021.3 |
| 20260505150908 | 6 | 352 | 8.0 | 12.9 | 0.00 | 0.00 | 0.00 | 55 | 1021.4 |
| 20260505150405 | 7 | 359 | 9.7 | 11.3 | 0.00 | 0.00 | 0.00 | 54 | 1021.3 |
| 20260505140334 | 4 | 34 | 4.8 | 6.4 | 0.00 | 0.00 | 0.00 | 61 | 1021.3 |
| 20260505130257 | 3 | 333 | 6.4 | 6.4 | 0.00 | 0.00 | 0.00 | 62 | 1020.5 |
| 20260505124748 | 3 | 345 | 4.8 | 4.8 | 0.00 | 0.00 | 0.00 | 61 | 1020.5 |
| 20260505124245 | 3 | 347 | 6.4 | 6.4 | 0.00 | 0.00 | 0.00 | 61 | 1020.6 |
| 20260505123740 | 3 | 338 | 4.8 | 6.4 | 0.00 | 0.00 | 0.00 | 60 | 1020.6 |
| 20260505123237 | 3 | 347 | 6.4 | 6.4 | 0.00 | 0.00 | 0.00 | 60 | 1020.5 |
| 20260505122734 | 3 | 333 | 8.0 | 11.3 | 0.00 | 0.00 | 0.00 | 60 | 1020.4 |
| 20260505122231 | 3 | 324 | 4.8 | 4.8 | 0.00 | 0.00 | 0.00 | 60 | 1020.4 |
| 20260505121727 | 2 | 302 | 6.4 | 6.4 | 0.00 | 0.00 | 0.00 | 59 | 1020.6 |
| 20260505121224 | 2 | 323 | 1.6 | 3.2 | 0.00 | 0.00 | 0.00 | 59 | 1020.6 |
| 20260505120721 | 2 | 319 | 1.6 | 3.2 | 0.00 | 0.00 | 0.00 | 58 | 1020.5 |
| 20260505120217 | 2 | 303 | 3.2 | 3.2 | 0.00 | 0.00 | 0.00 | 58 | 1020.5 |
| 20260505115715 | 2 | 306 | 3.2 | 3.2 | 0.00 | 0.00 | 0.00 | 57 | 1020.4 |
| 20260505115213 | 2 | 311 | 3.2 | 3.2 | 0.00 | 0.00 | 0.00 | 56 | 1020.4 |
| 20260505114710 | 2 | 334 | 4.8 | 4.8 | 0.00 | 0.00 | 0.00 | 56 | 1020.4 |
| 20260505114206 | 2 | 327 | 3.2 | 3.2 | 0.00 | 0.00 | 0.00 | 56 | 1020.4 |
| 20260505113703 | 3 | 324 | 1.6 | 3.2 | 0.00 | 0.00 | 0.00 | 55 | 1020.2 |
| 20260505113200 | 3 | 329 | 3.2 | 3.2 | 0.00 | 0.00 | 0.00 | 55 | 1020.2 |
| 20260505112656 | 3 | 3 | 1.6 | 1.6 | 0.00 | 0.00 | 0.00 | 55 | 1020.4 |
| 20260505112154 | 3 | 338 | 1.6 | 1.6 | 0.00 | 0.00 | 0.00 | 56 | 1020.4 |
| 20260505111653 | 3 | 327 | 1.6 | 1.6 | 0.00 | 0.00 | 0.00 | 56 | 1020.4 |
| 20260505111149 | 3 | 326 | 0.0 | 1.6 | 0.00 | 0.00 | 0.00 | 56 | 1020.2 |
| 20260505110646 | 3 | 300 | 0.0 | 0.0 | 0.00 | 0.00 | 0.00 | 56 | 1020.2 |
| 20260505110143 | 3 | 301 | 1.6 | 1.6 | 0.00 | 0.00 | 0.00 | 57 | 1020.3 |
| 20260505102119 | 2 | 227 | 0.0 | 0.0 | 0.00 | 0.00 | 0.00 | 57 | 1020.1 |
| 20260505101617 | 2 | 221 | 0.0 | 0.0 | 0.00 | 0.00 | 0.00 | 58 | 1020.0 |
| 20260505101113 | 2 | 221 | 0.0 | 0.0 | 0.00 | 0.00 | 0.00 | 57 | 1020.2 |
| 20260505100610 | 3 | 221 | 0.0 | 0.0 | 0.00 | 0.00 | 0.00 | 57 | 1020.0 |
| 20260505100107 | 3 | 221 | 0.0 | 0.0 | 0.00 | 0.00 | 0.00 | 57 | 1019.9 |
| 20260505095603 | 3 | 221 | 0.0 | 0.0 | 0.00 | 0.00 | 0.00 | 56 | 1019.9 |
| 20260505095059 | 3 | 221 | 0.0 | 0.0 | 0.00 | 0.00 | 0.00 | 55 | 1020.0 |
| 20260505094556 | 3 | 221 | 0.0 | 0.0 | 0.00 | 0.00 | 0.00 | 55 | 1019.7 |
| 20260505094052 | 3 | 221 | 0.0 | 0.0 | 0.00 | 0.00 | 0.00 | 55 | 1019.9 |
| 20260505093549 | 3 | 222 | 0.0 | 0.0 | 0.00 | 0.00 | 0.00 | 56 | 1020.0 |
| 20260505093046 | 3 | 223 | 0.0 | 0.0 | 0.00 | 0.00 | 0.00 | 55 | 1019.9 |
| 20260505092543 | 3 | 220 | 0.0 | 0.0 | 0.00 | 0.00 | 0.00 | 53 | 1019.6 |
| 20260505092042 | 3 | 220 | 0.0 | 0.0 | 0.00 | 0.00 | 0.00 | 53 | 1019.6 |
| 20260505091538 | 3 | 229 | 0.0 | 1.6 | 0.00 | 0.00 | 0.00 | 54 | 1019.7 |
| 20260505091037 | 3 | 229 | 0.0 | 0.0 | 0.00 | 0.00 | 0.00 | 55 | 1019.7 |
| 20260505090534 | 3 | 234 | 0.0 | 0.0 | 0.00 | 0.00 | 0.00 | 55 | 1019.9 |
| 20260505090032 | 3 | 240 | 1.6 | 1.6 | 0.00 | 0.00 | 0.00 | 55 | 1019.7 |
| 20260505085530 | 3 | 254 | 3.2 | 3.2 | 0.00 | 0.00 | 0.00 | 55 | 1019.6 |
| 20260505085027 | 3 | 233 | 0.0 | 1.6 | 0.00 | 0.00 | 0.00 | 55 | 1019.6 |
| 20260505084525 | 3 | 247 | 1.6 | 1.6 | 0.00 | 0.00 | 0.00 | 55 | 1019.5 |
| 20260505084023 | 3 | 255 | 1.6 | 3.2 | 0.00 | 0.00 | 0.00 | 55 | 1019.9 |
| 20260505083520 | 3 | 258 | 3.2 | 3.2 | 0.00 | 0.00 | 0.00 | 55 | 1019.7 |
| 20260505083017 | 3 | 249 | 1.6 | 1.6 | 0.00 | 0.00 | 0.00 | 54 | 1019.6 |
| 20260505082512 | 3 | 272 | 3.2 | 3.2 | 0.00 | 0.00 | 0.00 | 52 | 1019.9 |
| 20260505082009 | 3 | 354 | 0.0 | 1.6 | 0.00 | 0.00 | 0.00 | 52 | 1019.7 |
| 20260505081506 | 3 | 354 | 0.0 | 0.0 | 0.00 | 0.00 | 0.00 | 52 | 1019.7 |
| 20260505081003 | 3 | 354 | 0.0 | 0.0 | 0.00 | 0.00 | 0.00 | 52 | 1019.6 |
| 20260505080459 | 3 | 355 | 0.0 | 0.0 | 0.00 | 0.00 | 0.00 | 52 | 1019.7 |
| 20260505075955 | 3 | 354 | 0.0 | 0.0 | 0.00 | 0.00 | 0.00 | 51 | 1019.5 |
| 20260505075452 | 3 | 354 | 0.0 | 1.6 | 0.00 | 0.00 | 0.00 | 52 | 1019.6 |
| 20260505074949 | 3 | 342 | 3.2 | 3.2 | 0.00 | 0.00 | 0.00 | 52 | 1019.6 |
| 20260505074446 | 3 | 309 | 3.2 | 3.2 | 0.00 | 0.00 | 0.00 | 52 | 1019.7 |
| 20260505073943 | 3 | 325 | 1.6 | 3.2 | 0.00 | 0.00 | 0.00 | 53 | 1019.6 |
| 20260505073441 | 3 | 283 | 3.2 | 3.2 | 0.00 | 0.00 | 0.00 | 52 | 1019.5 |
| 20260505072938 | 3 | 269 | 3.2 | 3.2 | 0.00 | 0.00 | 0.00 | 53 | 1019.5 |
| 20260505072434 | 3 | 262 | 3.2 | 3.2 | 0.00 | 0.00 | 0.00 | 53 | 1019.5 |
| 20260505071930 | 3 | 228 | 0.0 | 1.6 | 0.00 | 0.00 | 0.00 | 52 | 1019.6 |
| 20260505071426 | 3 | 229 | 0.0 | 0.0 | 0.00 | 0.00 | 0.00 | 52 | 1019.5 |
| 20260505070925 | 3 | 274 | 3.2 | 4.8 | 0.00 | 0.00 | 0.00 | 52 | 1019.5 |
| 20260505070420 | 4 | 300 | 1.6 | 1.6 | 0.00 | 0.00 | 0.00 | 51 | 1019.6 |
| 20260505065916 | 4 | 349 | 1.6 | 1.6 | 0.00 | 0.00 | 0.00 | 50 | 1019.5 |
| 20260505065413 | 4 | 65 | 1.6 | 1.6 | 0.00 | 0.00 | 0.00 | 49 | 1019.5 |
| 20260505064910 | 4 | 34 | 1.6 | 1.6 | 0.00 | 0.00 | 0.00 | 49 | 1019.4 |
| 20260505064407 | 3 | 28 | 3.2 | 3.2 | 0.00 | 0.00 | 0.00 | 50 | 1019.3 |
| 20260505063906 | 3 | 264 | 3.2 | 3.2 | 0.00 | 0.00 | 0.00 | 51 | 1019.3 |
| 20260505063401 | 3 | 29 | 0.0 | 0.0 | 0.00 | 0.00 | 0.00 | 50 | 1019.4 |
| 20260505062858 | 4 | 32 | 0.0 | 0.0 | 0.00 | 0.00 | 0.00 | 49 | 1019.4 |
| 20260505062355 | 5 | 32 | 0.0 | 1.6 | 0.00 | 0.00 | 0.00 | 48 | 1019.4 |
| 20260505061852 | 5 | 34 | 1.6 | 1.6 | 0.00 | 0.00 | 0.00 | 48 | 1019.2 |
| 20260505061351 | 5 | 45 | 3.2 | 3.2 | 0.00 | 0.00 | 0.00 | 48 | 1019.2 |
| 20260505060848 | 5 | 63 | 1.6 | 1.6 | 0.00 | 0.00 | 0.00 | 48 | 1019.4 |
| 20260505060344 | 5 | 25 | 4.8 | 4.8 | 0.00 | 0.00 | 0.00 | 48 | 1019.2 |
| 20260505055840 | 5 | 22 | 4.8 | 4.8 | 0.00 | 0.00 | 0.00 | 48 | 1019.2 |
| 20260505055336 | 5 | 25 | 6.4 | 6.4 | 0.00 | 0.00 | 0.00 | 47 | 1019.1 |
| 20260505054834 | 5 | 45 | 3.2 | 3.2 | 0.00 | 0.00 | 0.00 | 47 | 1019.2 |
| 20260505054331 | 5 | 36 | 4.8 | 6.4 | 0.00 | 0.00 | 0.00 | 47 | 1019.2 |
| 20260505053829 | 5 | 51 | 6.4 | 6.4 | 0.00 | 0.00 | 0.00 | 47 | 1019.0 |
| 20260505053325 | 5 | 49 | 3.2 | 3.2 | 0.00 | 0.00 | 0.00 | 48 | 1019.0 |
| 20260505052822 | 4 | 54 | 1.6 | 3.2 | 0.00 | 0.00 | 0.00 | 48 | 1018.8 |
| 20260505052319 | 4 | 61 | 3.2 | 3.2 | 0.00 | 0.00 | 0.00 | 48 | 1018.9 |
| 20260505051816 | 4 | 74 | 1.6 | 1.6 | 0.00 | 0.00 | 0.00 | 48 | 1019.0 |
| 20260505051314 | 4 | 57 | 3.2 | 3.2 | 0.00 | 0.00 | 0.00 | 48 | 1019.0 |
| 20260505050812 | 4 | 42 | 1.6 | 1.6 | 0.00 | 0.00 | 0.00 | 48 | 1019.0 |
| 20260505050310 | 5 | 43 | 1.6 | 1.6 | 0.00 | 0.00 | 0.00 | 47 | 1019.0 |
| 20260505041740 | 5 | 29 | 3.2 | 4.8 | 0.00 | 0.00 | 0.00 | 46 | 1019.0 |
| 20260505041237 | 5 | 76 | 3.2 | 3.2 | 0.00 | 0.00 | 0.00 | 45 | 1018.8 |
| 20260505040734 | 5 | 27 | 6.4 | 9.7 | 0.00 | 0.00 | 0.00 | 45 | 1018.8 |
| 20260505040232 | 5 | 44 | 3.2 | 4.8 | 0.00 | 0.00 | 0.00 | 45 | 1018.7 |
| 20260505035729 | 5 | 69 | 3.2 | 3.2 | 0.00 | 0.00 | 0.00 | 44 | 1018.7 |
| 20260505035224 | 6 | 89 | 1.6 | 1.6 | 0.00 | 0.00 | 0.00 | 43 | 1018.4 |
| 20260505034721 | 6 | 31 | 6.4 | 6.4 | 0.00 | 0.00 | 0.00 | 43 | 1018.4 |
| 20260505034218 | 6 | 16 | 6.4 | 9.7 | 0.00 | 0.00 | 0.00 | 42 | 1018.5 |
| 20260505033714 | 6 | 44 | 11.3 | 12.9 | 0.00 | 0.00 | 0.00 | 42 | 1018.3 |
| 20260505033213 | 7 | 34 | 9.7 | 11.3 | 0.00 | 0.00 | 0.00 | 41 | 1018.3 |
| 20260505032710 | 7 | 27 | 6.4 | 9.7 | 0.00 | 0.00 | 0.00 | 41 | 1018.2 |
| 20260505032206 | 7 | 20 | 8.0 | 9.7 | 0.00 | 0.00 | 0.00 | 41 | 1018.1 |
| 20260505031704 | 7 | 22 | 8.0 | 11.3 | 0.00 | 0.00 | 0.00 | 40 | 1018.1 |
| 20260505031200 | 7 | 18 | 9.7 | 12.9 | 0.00 | 0.00 | 0.00 | 40 | 1018.0 |
| 20260505030657 | 7 | 14 | 17.7 | 17.7 | 0.00 | 0.00 | 0.00 | 39 | 1018.1 |
| 20260505030153 | 7 | 28 | 12.9 | 16.1 | 0.00 | 0.00 | 0.00 | 39 | 1017.7 |
| 20260505025649 | 7 | 17 | 11.3 | 14.5 | 0.00 | 0.00 | 0.00 | 38 | 1017.4 |
| 20260505025147 | 8 | 23 | 9.7 | 14.5 | 0.00 | 0.00 | 0.00 | 37 | 1017.7 |
| 20260505024644 | 8 | 3 | 14.5 | 16.1 | 0.00 | 0.00 | 0.00 | 37 | 1017.3 |
| 20260505024142 | 8 | 16 | 12.9 | 14.5 | 0.00 | 0.00 | 0.00 | 35 | 1017.3 |
| 20260505023639 | 8 | 14 | 14.5 | 17.7 | 0.00 | 0.00 | 0.00 | 35 | 1017.4 |
| 20260505023136 | 8 | 18 | 16.1 | 20.9 | 0.00 | 0.00 | 0.00 | 34 | 1017.3 |
| 20260505022634 | 9 | 15 | 16.1 | 17.7 | 0.00 | 0.00 | 0.00 | 33 | 1017.1 |
| 20260505022131 | 10 | 12 | 11.3 | 12.9 | 0.00 | 0.00 | 0.00 | 32 | 1017.0 |
| 20260505021627 | 10 | 43 | 9.7 | 11.3 | 0.00 | 0.00 | 0.00 | 29 | 1016.9 |
| 20260505021124 | 10 | 13 | 11.3 | 12.9 | 0.00 | 0.00 | 0.00 | 28 | 1016.9 |
| 20260505020620 | 10 | 11 | 11.3 | 14.5 | 0.00 | 0.00 | 0.00 | 28 | 1016.8 |
| 20260505020116 | 11 | 5 | 9.7 | 12.9 | 0.00 | 0.00 | 0.00 | 27 | 1016.8 |
| 20260505015613 | 11 | 18 | 9.7 | 14.5 | 0.00 | 0.00 | 0.00 | 26 | 1016.6 |
| 20260505015110 | 11 | 16 | 16.1 | 24.1 | 0.00 | 0.00 | 0.00 | 25 | 1016.7 |
| 20260505014607 | 11 | 23 | 11.3 | 12.9 | 0.00 | 0.00 | 0.00 | 24 | 1016.7 |
| 20260505014104 | 11 | 12 | 12.9 | 16.1 | 0.00 | 0.00 | 0.00 | 23 | 1016.6 |
| 20260505013601 | 12 | 10 | 14.5 | 16.1 | 0.00 | 0.00 | 0.00 | 23 | 1016.5 |
| 20260505013058 | 12 | 356 | 14.5 | 16.1 | 0.00 | 0.00 | 0.00 | 23 | 1016.5 |
| 20260505012556 | 12 | 22 | 11.3 | 14.5 | 0.00 | 0.00 | 0.00 | 23 | 1016.5 |
| 20260505012053 | 12 | 9 | 19.3 | 24.1 | 0.00 | 0.00 | 0.00 | 21 | 1016.4 |
| 20260505011548 | 12 | 340 | 16.1 | 20.9 | 0.00 | 0.00 | 0.00 | 21 | 1016.5 |
| 20260505011046 | 12 | 4 | 17.7 | 20.9 | 0.00 | 0.00 | 0.00 | 21 | 1016.5 |
| 20260505010541 | 12 | 336 | 16.1 | 20.9 | 0.00 | 0.00 | 0.00 | 21 | 1016.2 |
| 20260505010038 | 12 | 4 | 16.1 | 17.7 | 0.00 | 0.00 | 0.00 | 20 | 1016.2 |
| 20260505005534 | 12 | 7 | 9.7 | 12.9 | 0.00 | 0.00 | 0.00 | 22 | 1016.4 |
| 20260505005032 | 13 | 344 | 17.7 | 22.5 | 0.00 | 0.00 | 0.00 | 21 | 1016.4 |
| 20260505004529 | 12 | 343 | 12.9 | 16.1 | 0.00 | 0.00 | 0.00 | 22 | 1016.4 |
| 20260505004025 | 12 | 4 | 20.9 | 25.7 | 0.00 | 0.00 | 0.00 | 21 | 1016.4 |
| 20260505003523 | 12 | 348 | 14.5 | 20.9 | 0.00 | 0.00 | 0.00 | 22 | 1016.2 |
| 20260505003020 | 13 | 3 | 12.9 | 14.5 | 0.00 | 0.00 | 0.00 | 21 | 1016.5 |
| 20260505002515 | 13 | 4 | 16.1 | 17.7 | 0.00 | 0.00 | 0.00 | 22 | 1016.2 |
| 20260505002014 | 13 | 350 | 17.7 | 24.1 | 0.00 | 0.00 | 0.00 | 21 | 1016.5 |
| 20260505001511 | 13 | 358 | 22.5 | 29.0 | 0.00 | 0.00 | 0.00 | 22 | 1016.4 |
| 20260505001008 | 13 | 345 | 22.5 | 29.0 | 0.00 | 0.00 | 0.00 | 22 | 1016.4 |
| 20260505000505 | 13 | 341 | 14.5 | 16.1 | 0.00 | 0.00 | 0.00 | 23 | 1016.5 |
| 20260505000003 | 13 | 335 | 19.3 | 22.5 | 0.00 | 0.00 | 0.00 | 23 | 1016.6 |
| 20260504235459 | 13 | 343 | 20.9 | 27.4 | 0.00 | 0.00 | 0.00 | 23 | 1016.6 |
| 20260504234956 | 13 | 325 | 25.7 | 30.6 | 0.00 | 0.00 | 0.00 | 23 | 1016.6 |
| 20260504234453 | 13 | 345 | 19.3 | 22.5 | 0.00 | 0.00 | 0.00 | 23 | 1016.4 |
| 20260504233949 | 13 | 347 | 11.3 | 12.9 | 0.00 | 0.00 | 0.00 | 24 | 1016.6 |
| 20260504233445 | 12 | 348 | 17.7 | 22.5 | 0.00 | 0.00 | 0.00 | 24 | 1016.5 |
| 20260504232942 | 13 | 349 | 11.3 | 12.9 | 0.00 | 0.00 | 0.00 | 23 | 1016.5 |
| 20260504232439 | 13 | 2 | 19.3 | 22.5 | 0.00 | 0.00 | 0.00 | 23 | 1016.6 |
| 20260504231937 | 13 | 328 | 12.9 | 16.1 | 0.00 | 0.00 | 0.00 | 24 | 1016.6 |
| 20260504231432 | 13 | 337 | 12.9 | 16.1 | 0.00 | 0.00 | 0.00 | 25 | 1016.6 |
| 20260504230929 | 13 | 342 | 30.6 | 30.6 | 0.00 | 0.00 | 0.00 | 24 | 1016.7 |
| 20260504230426 | 13 | 345 | 22.5 | 27.4 | 0.00 | 0.00 | 0.00 | 26 | 1016.4 |
| 20260504225925 | 13 | 359 | 17.7 | 20.9 | 0.00 | 0.00 | 0.00 | 24 | 1016.5 |
| 20260504225421 | 13 | 6 | 16.1 | 17.7 | 0.00 | 0.00 | 0.00 | 25 | 1016.4 |
| 20260504224919 | 14 | 353 | 17.7 | 17.7 | 0.00 | 0.00 | 0.00 | 25 | 1016.4 |
| 20260504224415 | 13 | 327 | 20.9 | 24.1 | 0.00 | 0.00 | 0.00 | 27 | 1016.4 |
| 20260504223913 | 13 | 309 | 16.1 | 20.9 | 0.00 | 0.00 | 0.00 | 28 | 1016.5 |
| 20260504223408 | 12 | 0 | 16.1 | 17.7 | 0.00 | 0.00 | 0.00 | 28 | 1016.4 |
| 20260504222904 | 12 | 313 | 29.0 | 30.6 | 0.00 | 0.00 | 0.00 | 29 | 1016.6 |
| 20260504222401 | 12 | 344 | 24.1 | 29.0 | 0.00 | 0.00 | 0.00 | 29 | 1016.6 |
| 20260504221900 | 12 | 313 | 20.9 | 24.1 | 0.00 | 0.00 | 0.00 | 29 | 1016.6 |
| 20260504221356 | 12 | 342 | 24.1 | 29.0 | 0.00 | 0.00 | 0.00 | 30 | 1016.6 |
| 20260504220854 | 12 | 335 | 19.3 | 20.9 | 0.00 | 0.00 | 0.00 | 30 | 1016.6 |
| 20260504220350 | 12 | 332 | 16.1 | 16.1 | 0.00 | 0.00 | 0.00 | 29 | 1016.7 |
| 20260504215847 | 12 | 349 | 17.7 | 25.7 | 0.00 | 0.00 | 0.00 | 28 | 1016.5 |
| 20260504215343 | 12 | 351 | 24.1 | 27.4 | 0.00 | 0.00 | 0.00 | 28 | 1016.8 |
| 20260504214840 | 12 | 343 | 17.7 | 20.9 | 0.00 | 0.00 | 0.00 | 28 | 1016.7 |
| 20260504214337 | 13 | 3 | 20.9 | 25.7 | 0.00 | 0.00 | 0.00 | 27 | 1016.6 |
| 20260504213833 | 13 | 11 | 22.5 | 24.1 | 0.00 | 0.00 | 0.00 | 27 | 1016.7 |
| 20260504213329 | 12 | 1 | 17.7 | 20.9 | 0.00 | 0.00 | 0.00 | 29 | 1016.7 |
| 20260504212827 | 12 | 0 | 25.7 | 30.6 | 0.00 | 0.00 | 0.00 | 28 | 1016.7 |
| 20260504212323 | 13 | 333 | 20.9 | 24.1 | 0.00 | 0.00 | 0.00 | 29 | 1016.9 |
| 20260504211821 | 13 | 8 | 19.3 | 22.5 | 0.00 | 0.00 | 0.00 | 29 | 1017.0 |
| 20260504211316 | 13 | 351 | 19.3 | 24.1 | 0.00 | 0.00 | 0.00 | 29 | 1016.8 |
| 20260504210814 | 13 | 355 | 20.9 | 25.7 | 0.00 | 0.00 | 0.00 | 31 | 1016.8 |
| 20260504210311 | 13 | 8 | 17.7 | 20.9 | 0.00 | 0.00 | 0.00 | 31 | 1016.6 |
| 20260504205808 | 13 | 330 | 19.3 | 27.4 | 0.00 | 0.00 | 0.00 | 31 | 1016.8 |
| 20260504205306 | 13 | 349 | 22.5 | 25.7 | 0.00 | 0.00 | 0.00 | 30 | 1016.7 |
| 20260504204804 | 13 | 346 | 20.9 | 25.7 | 0.00 | 0.00 | 0.00 | 31 | 1016.7 |
| 20260504204302 | 13 | 3 | 16.1 | 20.9 | 0.00 | 0.00 | 0.00 | 32 | 1016.6 |
| 20260504203801 | 13 | 336 | 24.1 | 27.4 | 0.00 | 0.00 | 0.00 | 30 | 1016.6 |
| 20260504203258 | 13 | 359 | 20.9 | 24.1 | 0.00 | 0.00 | 0.00 | 31 | 1016.7 |
| 20260504202758 | 14 | 336 | 19.3 | 22.5 | 0.00 | 0.00 | 0.00 | 31 | 1016.6 |
| 20260504202256 | 13 | 318 | 17.7 | 17.7 | 0.00 | 0.00 | 0.00 | 31 | 1016.5 |
| 20260504201752 | 13 | 355 | 11.3 | 14.5 | 0.00 | 0.00 | 0.00 | 32 | 1016.4 |
| 20260504201249 | 13 | 338 | 17.7 | 17.7 | 0.00 | 0.00 | 0.00 | 32 | 1016.6 |
| 20260504200748 | 13 | 328 | 22.5 | 29.0 | 0.00 | 0.00 | 0.00 | 31 | 1016.5 |
| 20260504200243 | 12 | 332 | 20.9 | 24.1 | 0.00 | 0.00 | 0.00 | 31 | 1016.6 |
| 20260504195740 | 12 | 339 | 24.1 | 30.6 | 0.00 | 0.00 | 0.00 | 32 | 1016.6 |
| 20260504195236 | 12 | 345 | 17.7 | 20.9 | 0.00 | 0.00 | 0.00 | 32 | 1016.6 |
| 20260504194733 | 12 | 346 | 27.4 | 33.8 | 0.00 | 0.00 | 0.00 | 31 | 1016.4 |
| 20260504194229 | 13 | 337 | 14.5 | 16.1 | 0.00 | 0.00 | 0.00 | 32 | 1016.6 |
| 20260504193725 | 12 | 350 | 16.1 | 17.7 | 0.00 | 0.00 | 0.00 | 32 | 1016.6 |
| 20260504193223 | 12 | 359 | 14.5 | 16.1 | 0.00 | 0.00 | 0.00 | 31 | 1016.4 |
| 20260504192721 | 13 | 1 | 17.7 | 25.7 | 0.00 | 0.00 | 0.00 | 32 | 1016.6 |
| 20260504192219 | 13 | 350 | 17.7 | 20.9 | 0.00 | 0.00 | 0.00 | 31 | 1016.6 |
| 20260504191718 | 13 | 342 | 17.7 | 24.1 | 0.00 | 0.00 | 0.00 | 31 | 1016.6 |
| 20260504191214 | 13 | 350 | 16.1 | 22.5 | 0.00 | 0.00 | 0.00 | 32 | 1016.7 |
| 20260504190709 | 13 | 334 | 17.7 | 22.5 | 0.00 | 0.00 | 0.00 | 31 | 1016.8 |
| 20260504190206 | 14 | 339 | 19.3 | 24.1 | 0.00 | 0.00 | 0.00 | 30 | 1016.5 |
| 20260504185702 | 13 | 316 | 12.9 | 14.5 | 0.00 | 0.00 | 0.00 | 32 | 1016.8 |
| 20260504185159 | 14 | 2 | 22.5 | 30.6 | 0.00 | 0.00 | 0.00 | 31 | 1016.8 |
| 20260504184655 | 14 | 340 | 19.3 | 25.7 | 0.00 | 0.00 | 0.00 | 32 | 1016.7 |
| 20260504184150 | 13 | 329 | 17.7 | 22.5 | 0.00 | 0.00 | 0.00 | 31 | 1016.8 |
| 20260504183647 | 15 | 345 | 27.4 | 30.6 | 0.00 | 0.00 | 0.00 | 31 | 1016.5 |
| 20260504183145 | 14 | 344 | 22.5 | 25.7 | 0.00 | 0.00 | 0.00 | 31 | 1016.4 |
| 20260504182642 | 14 | 308 | 20.9 | 24.1 | 0.00 | 0.00 | 0.00 | 31 | 1016.8 |
| 20260504182140 | 14 | 3 | 20.9 | 30.6 | 0.00 | 0.00 | 0.00 | 30 | 1016.8 |
| 20260504181637 | 13 | 350 | 19.3 | 20.9 | 0.00 | 0.00 | 0.00 | 32 | 1016.6 |
| 20260504181135 | 13 | 330 | 27.4 | 40.2 | 0.00 | 0.00 | 0.00 | 31 | 1016.8 |
| 20260504180634 | 13 | 342 | 20.9 | 27.4 | 0.00 | 0.00 | 0.00 | 32 | 1016.7 |
| 20260504180132 | 13 | 343 | 22.5 | 27.4 | 0.00 | 0.00 | 0.00 | 33 | 1016.8 |
| 20260504175629 | 13 | 359 | 16.1 | 20.9 | 0.00 | 0.00 | 0.00 | 33 | 1016.9 |
| 20260504175125 | 13 | 6 | 17.7 | 20.9 | 0.00 | 0.00 | 0.00 | 35 | 1016.8 |
| 20260504174624 | 13 | 359 | 20.9 | 27.4 | 0.00 | 0.00 | 0.00 | 35 | 1016.9 |
| 20260504174119 | 13 | 357 | 25.7 | 33.8 | 0.00 | 0.00 | 0.00 | 34 | 1017.0 |
| 20260504173617 | 13 | 340 | 22.5 | 27.4 | 0.00 | 0.00 | 0.00 | 35 | 1016.8 |
| 20260504173114 | 13 | 350 | 19.3 | 22.5 | 0.00 | 0.00 | 0.00 | 35 | 1016.8 |
| 20260504172611 | 13 | 354 | 22.5 | 29.0 | 0.00 | 0.00 | 0.00 | 35 | 1016.9 |
| 20260504172107 | 13 | 337 | 20.9 | 25.7 | 0.00 | 0.00 | 0.00 | 36 | 1016.7 |
| 20260504171604 | 12 | 340 | 17.7 | 20.9 | 0.00 | 0.00 | 0.00 | 36 | 1016.8 |